createdAt,value
2017-11-30T14:41:39.236Z,77
2017-11-30T14:42:43.297Z,77.5
2017-11-30T14:43:44.593Z,77.5
2017-11-30T14:44:46.612Z,77.4
2017-11-30T14:45:48.010Z,77.5
2017-11-30T14:46:50.008Z,77.7
2017-11-30T14:47:51.328Z,77.7
2017-11-30T14:48:54.758Z,77.6
2017-11-30T14:49:56.625Z,77.6
2017-11-30T14:50:59.899Z,78.1
2017-11-30T14:52:01.214Z,77.9
2017-11-30T14:53:08.632Z,78
2017-11-30T14:54:09.880Z,78.3
2017-11-30T14:55:14.283Z,78.3
2017-11-30T14:56:18.791Z,78.3
2017-11-30T14:57:20.161Z,78.1
2017-11-30T14:58:22.889Z,77.9
2017-11-30T14:59:25.668Z,78.2
2017-11-30T15:00:27.077Z,79.1
2017-11-30T15:01:38.024Z,78.7
2017-11-30T15:02:40.620Z,78.7
2017-11-30T15:03:45.173Z,78.4
2017-11-30T15:04:50.587Z,78.6
2017-11-30T15:05:53.192Z,79
2017-11-30T15:06:54.490Z,78.2
2017-11-30T15:07:55.869Z,78
2017-11-30T15:08:57.248Z,79
2017-11-30T15:09:58.596Z,79.3
2017-11-30T15:10:59.892Z,79
2017-11-30T15:12:01.204Z,78.9
2017-11-30T15:13:02.498Z,78.6
2017-11-30T15:14:05.371Z,78.4
2017-11-30T15:15:06.722Z,78.1
2017-11-30T15:16:08.041Z,78.1
2017-11-30T15:17:09.388Z,78.1
2017-11-30T15:18:10.720Z,78
2017-11-30T15:19:12.956Z,78.2
2017-11-30T15:20:14.420Z,78.3
2017-11-30T15:21:15.826Z,79.2
2017-11-30T15:22:17.095Z,78.7
2017-11-30T15:23:18.441Z,78.9
2017-11-30T15:24:21.202Z,78.7
2017-11-30T15:25:22.512Z,78.6
2017-11-30T15:26:23.779Z,78.6
2017-11-30T15:27:25.014Z,78.6
2017-11-30T15:28:26.562Z,78.5
2017-11-30T15:29:27.872Z,78.4
2017-11-30T15:30:29.132Z,78.3
2017-11-30T15:31:30.458Z,78.2
2017-11-30T15:32:32.358Z,78.6
2017-11-30T15:33:34.003Z,79.1
2017-11-30T15:34:36.691Z,79.2
2017-11-30T15:35:38.009Z,79.5
2017-11-30T15:36:39.376Z,79.5
2017-11-30T15:37:40.767Z,79.5
2017-11-30T15:38:42.387Z,79.6
2017-11-30T15:39:43.740Z,79.4
2017-11-30T15:40:45.906Z,79
2017-11-30T15:41:47.299Z,79.3
2017-11-30T15:42:48.701Z,79
2017-11-30T15:43:50.330Z,79.3
2017-11-30T15:44:53.180Z,78.9
2017-11-30T15:45:55.249Z,79.4
2017-11-30T15:46:56.523Z,79.5
2017-11-30T15:47:57.932Z,79.2
2017-11-30T15:48:59.334Z,79.4
2017-11-30T15:50:00.652Z,79.5
2017-11-30T15:51:02.093Z,79.6
2017-11-30T15:52:03.482Z,79.9
2017-11-30T15:53:04.915Z,80.1
2017-11-30T15:54:07.172Z,80.5
2017-11-30T15:55:09.986Z,80.4
2017-11-30T15:56:11.264Z,80.3
2017-11-30T15:57:12.618Z,80.3
2017-11-30T15:58:13.980Z,80.4
2017-11-30T15:59:15.563Z,80.3
2017-11-30T16:00:16.839Z,80.3
2017-11-30T16:01:18.147Z,80.1
2017-11-30T16:02:19.913Z,80.1
2017-11-30T16:03:21.165Z,80.1
2017-11-30T16:04:22.536Z,80.3
2017-11-30T16:05:25.258Z,80.4
2017-11-30T16:06:26.522Z,80.4
2017-11-30T16:07:27.844Z,80.7
2017-11-30T16:08:29.131Z,80.2
2017-11-30T16:09:30.752Z,79.6
2017-11-30T16:10:32.193Z,79.5
2017-11-30T16:11:33.569Z,79.4
2017-11-30T16:12:34.956Z,79.6
2017-11-30T16:13:36.277Z,79.8
2017-11-30T16:14:37.636Z,79.8
2017-11-30T16:15:40.337Z,80
2017-11-30T16:16:41.590Z,79.6
2017-11-30T16:17:42.899Z,79.1
2017-11-30T16:18:44.200Z,79.5
2017-11-30T16:19:45.629Z,79.4
2017-11-30T16:20:47.050Z,79.2
2017-11-30T16:21:48.451Z,79
2017-11-30T16:22:49.835Z,78.9
2017-11-30T16:23:51.126Z,78.8
2017-11-30T16:24:52.388Z,78.9
2017-11-30T16:25:55.041Z,78.9
2017-11-30T16:26:56.347Z,78.8
2017-11-30T16:27:57.664Z,78.9
2017-11-30T16:28:59.603Z,78.7
2017-11-30T16:30:01.576Z,78.6
2017-11-30T16:31:02.953Z,78.2
2017-11-30T16:32:04.266Z,78
2017-11-30T16:33:05.641Z,78.2
2017-11-30T16:34:06.996Z,78
2017-11-30T16:35:08.362Z,77.8
2017-11-30T16:36:11.725Z,77.8
2017-11-30T16:37:13.020Z,77.9
2017-11-30T16:38:14.370Z,77.9
2017-11-30T16:39:15.692Z,78
2017-11-30T16:40:16.964Z,78.1
2017-11-30T16:41:18.275Z,78.2
2017-11-30T16:42:19.653Z,78.3
2017-11-30T16:43:21.003Z,78.2
2017-11-30T16:44:22.366Z,78.4
2017-11-30T16:45:23.724Z,78.2
2017-11-30T16:46:26.364Z,78.5
2017-11-30T16:47:27.724Z,78.3
2017-11-30T16:48:28.962Z,78.2
2017-11-30T16:49:30.220Z,78.4
2017-11-30T16:50:32.198Z,78.9
2017-11-30T16:51:33.425Z,78.3
2017-11-30T16:52:34.813Z,79
2017-11-30T16:53:36.134Z,79.9
2017-11-30T16:54:37.493Z,79
2017-11-30T16:55:38.845Z,79.1
2017-11-30T16:56:41.671Z,79.1
2017-11-30T16:57:43.041Z,78.9
2017-11-30T16:58:44.407Z,78.9
2017-11-30T16:59:45.727Z,79.1
2017-11-30T17:00:47.140Z,79.9
2017-11-30T17:01:48.482Z,79.2
2017-11-30T17:02:49.736Z,79.3
2017-11-30T17:03:51.059Z,79.3
2017-11-30T17:04:52.411Z,79.4
2017-11-30T17:05:53.830Z,79.3
2017-11-30T17:06:56.528Z,79.4
2017-11-30T17:07:57.910Z,79.4
2017-11-30T17:08:59.255Z,79.4
2017-11-30T17:10:00.690Z,79.3
2017-11-30T17:11:02.319Z,79.3
2017-11-30T17:12:03.533Z,79.5
2017-11-30T17:13:04.896Z,79.1
2017-11-30T17:14:06.300Z,79.1
2017-11-30T17:15:07.587Z,79.2
2017-11-30T17:16:09.184Z,79.1
2017-11-30T17:17:11.937Z,79.1
2017-11-30T17:18:13.366Z,79.3
2017-11-30T17:19:14.744Z,79.1
2017-11-30T17:20:17.405Z,78.7
2017-11-30T17:21:19.031Z,78.9
2017-11-30T17:22:20.379Z,79.1
2017-11-30T17:23:21.669Z,79.1
2017-11-30T17:24:22.943Z,79
2017-11-30T17:25:24.339Z,79.1
2017-11-30T17:26:25.851Z,79.2
2017-11-30T17:27:28.630Z,79.3
2017-11-30T17:28:30.437Z,79.6
2017-11-30T17:29:31.815Z,79.5
2017-11-30T17:30:33.183Z,79.6
2017-11-30T17:31:34.510Z,79.3
2017-11-30T17:32:35.932Z,79.2
2017-11-30T17:33:37.241Z,79.3
2017-11-30T17:34:38.692Z,79.3
2017-11-30T17:35:40.127Z,79.3
2017-11-30T17:36:41.784Z,79.3
2017-11-30T17:37:44.458Z,79.2
2017-11-30T17:38:46.470Z,79.1
2017-11-30T17:39:47.748Z,79
2017-11-30T17:40:49.009Z,78.9
2017-11-30T17:41:50.351Z,78.6
2017-11-30T17:42:51.655Z,78.5
2017-11-30T17:43:52.955Z,78.4
2017-11-30T17:44:54.290Z,78.8
2017-11-30T17:45:55.592Z,79.5
2017-11-30T17:46:57.019Z,78.8
2017-11-30T17:47:59.759Z,78.8
2017-11-30T17:49:01.119Z,78.7
2017-11-30T17:50:02.499Z,79.3
2017-11-30T17:51:03.862Z,79
2017-11-30T17:52:05.230Z,78.9
2017-11-30T17:53:06.532Z,78.8
2017-11-30T17:54:07.956Z,78.9
2017-11-30T17:55:09.334Z,78.9
2017-11-30T17:56:10.698Z,78.4
2017-11-30T17:57:12.031Z,79
2017-11-30T17:58:14.746Z,78.9
2017-11-30T17:59:16.034Z,78.7
2017-11-30T18:00:17.352Z,78.7
2017-11-30T18:01:18.684Z,78.5
2017-11-30T18:02:20.026Z,78.6
2017-11-30T18:03:21.251Z,78.9
2017-11-30T18:04:23.229Z,78.8
2017-11-30T18:05:24.517Z,78.8
2017-11-30T18:06:26.429Z,78.9
2017-11-30T18:07:27.686Z,79
2017-11-30T18:08:30.404Z,78.9
2017-11-30T18:09:31.785Z,78.8
2017-11-30T18:10:33.136Z,78.6
2017-11-30T18:11:34.461Z,78.4
2017-11-30T18:12:35.890Z,78.4
2017-11-30T18:13:37.140Z,78.8
2017-11-30T18:14:38.497Z,78.8
2017-11-30T18:15:39.826Z,78.8
2017-11-30T18:16:41.184Z,78.8
2017-11-30T18:17:42.501Z,78.8
2017-11-30T18:18:45.766Z,78.8
2017-11-30T18:19:47.156Z,78.8
2017-11-30T18:20:48.459Z,79
2017-11-30T18:21:49.855Z,79
2017-11-30T18:22:51.208Z,79.1
2017-11-30T18:23:52.554Z,79.2
2017-11-30T18:24:53.903Z,79
2017-11-30T18:25:55.164Z,79.3
2017-11-30T18:26:56.484Z,79.5
2017-11-30T18:27:57.935Z,79.2
2017-11-30T18:29:00.668Z,79.2
2017-11-30T18:30:01.996Z,79.5
2017-11-30T18:31:03.387Z,79.5
2017-11-30T18:32:04.678Z,79.4
2017-11-30T18:33:06.101Z,79.5
2017-11-30T18:34:07.350Z,79.2
2017-11-30T18:35:08.671Z,79
2017-11-30T18:36:10.888Z,79.1
2017-11-30T18:37:12.276Z,78.7
2017-11-30T18:38:13.658Z,78.6
2017-11-30T18:39:16.329Z,78.9
2017-11-30T18:40:18.588Z,79
2017-11-30T18:41:19.953Z,78.9
2017-11-30T18:42:21.303Z,78.8
2017-11-30T18:43:22.864Z,78.8
2017-11-30T18:44:24.148Z,78.6
2017-11-30T18:45:25.407Z,78.7
2017-11-30T18:46:26.708Z,78.4
2017-11-30T18:47:27.931Z,78.7
2017-11-30T18:48:29.202Z,78.6
2017-11-30T18:49:32.454Z,78.4
2017-11-30T18:50:33.798Z,78.5
2017-11-30T18:51:35.746Z,78.4
2017-11-30T18:52:37.008Z,78.6
2017-11-30T18:53:38.420Z,78.6
2017-11-30T18:54:39.818Z,79.1
2017-11-30T18:55:41.081Z,78.7
2017-11-30T18:56:42.401Z,78.8
2017-11-30T18:57:43.678Z,78.9
2017-11-30T18:58:45.118Z,78.8
2017-11-30T18:59:47.705Z,79
2017-11-30T19:00:49.020Z,78.9
2017-11-30T19:01:50.352Z,78.9
2017-11-30T19:02:51.724Z,78.8
2017-11-30T19:03:53.093Z,79
2017-11-30T19:04:54.902Z,78.8
2017-11-30T19:05:56.204Z,78.9
2017-11-30T19:06:57.450Z,79.2
2017-11-30T19:07:58.721Z,79.2
2017-11-30T19:09:00.124Z,79.3
2017-11-30T19:10:02.881Z,79.6
2017-11-30T19:11:04.260Z,79
2017-11-30T19:12:05.498Z,79.3
2017-11-30T19:13:06.790Z,79.3
2017-11-30T19:14:10.577Z,79.4
2017-11-30T19:15:11.898Z,79.4
2017-11-30T19:16:13.886Z,79.4
2017-11-30T19:17:15.173Z,79.7
2017-11-30T19:18:16.596Z,80.1
2017-11-30T19:19:17.985Z,80.1
2017-11-30T19:20:20.651Z,80
2017-11-30T19:21:22.016Z,80
2017-11-30T19:22:23.306Z,80.3
2017-11-30T19:23:25.243Z,80.3
2017-11-30T19:24:26.855Z,80.2
2017-11-30T19:25:28.222Z,80.1
2017-11-30T19:26:29.612Z,80.3
2017-11-30T19:27:30.898Z,80.5
2017-11-30T19:28:32.232Z,81
2017-11-30T19:29:33.800Z,81.1
2017-11-30T19:30:36.434Z,80.9
2017-11-30T19:31:37.757Z,81.2
2017-11-30T19:32:38.935Z,81.4
2017-11-30T19:33:40.219Z,81.7
2017-11-30T19:34:41.577Z,81.5
2017-11-30T19:35:42.850Z,81.5
2017-11-30T19:36:44.151Z,81.5
2017-11-30T19:37:45.465Z,81.3
2017-11-30T19:38:46.764Z,81.5
2017-11-30T19:39:48.130Z,82.2
2017-11-30T19:40:50.965Z,81.6
2017-11-30T19:41:52.361Z,81.7
2017-11-30T19:42:53.754Z,81.8
2017-11-30T19:43:55.127Z,82
2017-11-30T19:44:56.484Z,82.2
2017-11-30T19:45:57.826Z,82.1
2017-11-30T19:46:59.151Z,82.3
2017-11-30T19:48:00.590Z,82.1
2017-11-30T19:49:01.925Z,82.1
2017-11-30T19:50:03.274Z,81.8
2017-11-30T19:51:06.005Z,81.7
2017-11-30T19:52:07.443Z,81.6
2017-11-30T19:53:08.789Z,81.7
2017-11-30T19:54:10.225Z,82.2
2017-11-30T19:55:11.601Z,81.9
2017-11-30T19:56:13.028Z,82.2
2017-11-30T19:57:14.312Z,82.2
2017-11-30T19:58:15.597Z,83.3
2017-11-30T19:59:16.988Z,82.4
2017-11-30T20:00:18.458Z,82.3
2017-11-30T20:01:21.270Z,82.1
2017-11-30T20:02:22.692Z,81.8
2017-11-30T20:03:24.115Z,81.7
2017-11-30T20:04:25.396Z,81.8
2017-11-30T20:05:26.826Z,81.8
2017-11-30T20:06:28.180Z,81.6
2017-11-30T20:07:29.472Z,81.6
2017-11-30T20:08:30.744Z,81.3
2017-11-30T20:09:32.184Z,82.1
2017-11-30T20:10:33.484Z,81.1
2017-11-30T20:11:36.183Z,80.6
2017-11-30T20:12:37.509Z,81
2017-11-30T20:13:38.906Z,81.1
2017-11-30T20:14:40.241Z,81.2
2017-11-30T20:15:41.647Z,81.2
2017-11-30T20:16:43.654Z,81
2017-11-30T20:17:44.990Z,81.1
2017-11-30T20:18:46.332Z,81.6
2017-11-30T20:19:47.658Z,81.1
2017-11-30T20:20:48.938Z,81
2017-11-30T20:21:51.617Z,81
2017-11-30T20:22:52.978Z,80.8
2017-11-30T20:23:54.305Z,80.9
2017-11-30T20:24:56.710Z,81
2017-11-30T20:25:58.054Z,80.8
2017-11-30T20:26:59.383Z,80.8
2017-11-30T20:28:00.640Z,80.6
2017-11-30T20:29:02.036Z,80.8
2017-11-30T20:30:03.324Z,80.8
2017-11-30T20:31:05.339Z,80.8
2017-11-30T20:32:08.524Z,80.7
2017-11-30T20:33:09.977Z,80.7
2017-11-30T20:34:11.358Z,80.7
2017-11-30T20:35:12.675Z,80.5
2017-11-30T20:36:14.064Z,80.4
2017-11-30T20:37:15.273Z,80.3
2017-11-30T20:38:16.702Z,80.3
2017-11-30T20:39:18.096Z,80.2
2017-11-30T20:40:19.438Z,80.7
2017-11-30T20:41:20.832Z,80.5
2017-11-30T20:42:23.498Z,80.7
2017-11-30T20:43:24.841Z,80.5
2017-11-30T20:44:26.228Z,80.5
2017-11-30T20:45:27.549Z,80.6
2017-11-30T20:46:28.909Z,80.6
2017-11-30T20:47:30.282Z,80.4
2017-11-30T20:48:31.637Z,80.3
2017-11-30T20:49:32.917Z,80.4
2017-11-30T20:50:34.290Z,80.4
2017-11-30T20:51:35.670Z,80.4
2017-11-30T20:52:38.369Z,80.4
2017-11-30T20:53:39.730Z,81.2
2017-11-30T20:54:41.000Z,81.2
2017-11-30T20:55:42.369Z,80.5
2017-11-30T20:56:43.756Z,80.8
2017-11-30T20:57:45.065Z,80.7
2017-11-30T20:58:46.507Z,80.7
2017-11-30T20:59:47.759Z,80.6
2017-11-30T21:00:49.120Z,80.6
2017-11-30T21:01:50.508Z,80.4
2017-11-30T21:02:53.324Z,80.6
2017-11-30T21:03:54.724Z,80.4
2017-11-30T21:04:56.003Z,80.4
2017-11-30T21:05:57.373Z,80.4
2017-11-30T21:06:58.810Z,80.5
2017-11-30T21:08:00.876Z,80.4
2017-11-30T21:09:02.221Z,80.6
2017-11-30T21:10:03.612Z,80.5
2017-11-30T21:11:04.799Z,80.5
2017-11-30T21:12:06.135Z,80.6
2017-11-30T21:13:08.832Z,80.7
2017-11-30T21:14:10.201Z,80.6
2017-11-30T21:15:11.579Z,80.5
2017-11-30T21:16:12.884Z,80.5
2017-11-30T21:17:14.268Z,80.5
2017-11-30T21:18:15.600Z,80.6
2017-11-30T21:19:16.919Z,80.3
2017-11-30T21:20:18.239Z,80.5
2017-11-30T21:21:19.598Z,81.1
2017-11-30T21:22:20.930Z,80.5
2017-11-30T21:23:23.748Z,80.6
2017-11-30T21:24:25.038Z,80.5
2017-11-30T21:25:26.425Z,80.5
2017-11-30T21:26:27.731Z,80.5
2017-11-30T21:27:29.207Z,80.4
2017-11-30T21:28:30.531Z,80.3
2017-11-30T21:29:31.860Z,80.1
2017-11-30T21:30:33.240Z,80
2017-11-30T21:31:34.506Z,80
2017-11-30T21:32:35.917Z,79.9
2017-11-30T21:33:38.513Z,79.9
2017-11-30T21:34:39.769Z,80.1
2017-11-30T21:35:40.990Z,79.5
2017-11-30T21:36:42.338Z,79.8
2017-11-30T21:37:43.678Z,79.9
2017-11-30T21:38:44.973Z,80
2017-11-30T21:39:46.314Z,80
2017-11-30T21:40:47.639Z,80
2017-11-30T21:41:48.980Z,80.1
2017-11-30T21:42:50.419Z,80.1
2017-11-30T21:43:53.191Z,80
2017-11-30T21:44:54.350Z,79.8
2017-11-30T21:45:55.692Z,79.5
2017-11-30T21:46:57.028Z,79.7
2017-11-30T21:47:58.272Z,79.9
2017-11-30T21:48:59.601Z,79.9
2017-11-30T21:50:00.919Z,80.1
2017-11-30T21:51:02.275Z,80.1
2017-11-30T21:52:03.588Z,80
2017-11-30T21:53:04.891Z,79.9
2017-11-30T21:54:07.411Z,79.6
2017-11-30T21:55:08.761Z,79.9
2017-11-30T21:56:09.986Z,80
2017-11-30T21:57:11.306Z,79.9
2017-11-30T21:58:12.654Z,80
2017-11-30T21:59:13.931Z,80.7
2017-11-30T22:00:15.304Z,80
2017-11-30T22:01:16.618Z,79.7
2017-11-30T22:02:17.846Z,79.6
2017-11-30T22:03:19.131Z,79.8
2017-11-30T22:04:21.753Z,80.1
2017-11-30T22:05:23.085Z,80.3
2017-11-30T22:06:24.504Z,80.3
2017-11-30T22:07:25.788Z,80.1
2017-11-30T22:08:27.168Z,80.1
2017-11-30T22:09:28.468Z,80.1
2017-11-30T22:10:29.734Z,79.9
2017-11-30T22:11:31.064Z,79.5
2017-11-30T22:12:32.437Z,79.5
2017-11-30T22:13:34.050Z,79.6
2017-11-30T22:14:36.794Z,79.6
2017-11-30T22:15:38.083Z,79.6
2017-11-30T22:16:39.397Z,79.7
2017-11-30T22:17:40.699Z,79.8
2017-11-30T22:18:41.996Z,79.5
2017-11-30T22:19:43.358Z,79.5
2017-11-30T22:20:44.651Z,79.5
2017-11-30T22:21:45.912Z,79.3
2017-11-30T22:22:47.239Z,79.2
2017-11-30T22:23:48.723Z,79.3
2017-11-30T22:24:51.397Z,79.8
2017-11-30T22:25:52.672Z,79.4
2017-11-30T22:26:53.985Z,79.4
2017-11-30T22:27:55.313Z,79.3
2017-11-30T22:28:56.597Z,79.3
2017-11-30T22:29:57.903Z,79.2
2017-11-30T22:30:59.193Z,79.1
2017-11-30T22:32:00.511Z,79.3
2017-11-30T22:33:01.836Z,79.5
2017-11-30T22:34:03.193Z,79.6
2017-11-30T22:35:05.918Z,79.7
2017-11-30T22:36:07.284Z,79.8
2017-11-30T22:37:08.623Z,79.6
2017-11-30T22:38:09.996Z,79.5
2017-11-30T22:39:11.560Z,79.5
2017-11-30T22:40:12.858Z,79.3
2017-11-30T22:41:14.174Z,78.9
2017-11-30T22:42:15.518Z,78.9
2017-11-30T22:43:16.951Z,79
2017-11-30T22:44:18.424Z,78.7
2017-11-30T22:45:20.987Z,78.9
2017-11-30T22:46:22.331Z,78.8
2017-11-30T22:47:23.681Z,79
2017-11-30T22:48:25.003Z,79.1
2017-11-30T22:49:26.372Z,78.9
2017-11-30T22:50:27.733Z,79.8
2017-11-30T22:51:29.047Z,79.1
2017-11-30T22:52:30.313Z,78.8
2017-11-30T22:53:31.616Z,78.7
2017-11-30T22:54:32.972Z,78.7
2017-11-30T22:55:35.703Z,78.8
2017-11-30T22:56:37.047Z,78.6
2017-11-30T22:57:38.494Z,78.6
2017-11-30T22:58:39.887Z,78.4
2017-11-30T22:59:41.194Z,78.1
2017-11-30T23:00:42.515Z,77.8
2017-11-30T23:01:43.805Z,78.1
2017-11-30T23:02:45.159Z,79
2017-11-30T23:03:46.453Z,78.6
2017-11-30T23:04:47.752Z,78.5
2017-11-30T23:05:50.496Z,78.4
2017-11-30T23:06:51.839Z,78.4
2017-11-30T23:07:53.109Z,78.1
2017-11-30T23:08:54.397Z,78.6
2017-11-30T23:09:55.916Z,78.5
2017-11-30T23:10:57.200Z,78.6
2017-11-30T23:11:58.491Z,78.4
2017-11-30T23:13:00.547Z,78.1
2017-11-30T23:14:02.437Z,78.1
2017-11-30T23:15:03.910Z,77.9
2017-11-30T23:16:06.648Z,77.9
2017-11-30T23:17:07.993Z,77.9
2017-11-30T23:18:09.328Z,78
2017-11-30T23:19:10.632Z,78
2017-11-30T23:20:12.048Z,77.9
2017-11-30T23:21:13.368Z,78.3
2017-11-30T23:22:14.626Z,78.1
2017-11-30T23:23:15.856Z,78.2
2017-11-30T23:24:17.269Z,78.3
2017-11-30T23:25:18.821Z,78.2
2017-11-30T23:26:21.444Z,78.5
2017-11-30T23:27:22.747Z,78.4
2017-11-30T23:28:24.141Z,78.6
2017-11-30T23:29:25.447Z,78.7
2017-11-30T23:30:27.032Z,79
2017-11-30T23:31:28.358Z,78.9
2017-11-30T23:32:29.653Z,78.8
2017-11-30T23:33:31.089Z,78.7
2017-11-30T23:34:32.373Z,78.7
2017-11-30T23:35:33.855Z,78.8
2017-11-30T23:36:36.452Z,79
2017-11-30T23:37:38.453Z,79
2017-11-30T23:38:39.853Z,79
2017-11-30T23:39:41.167Z,79
2017-11-30T23:40:42.648Z,78.8
2017-11-30T23:41:44.001Z,79
2017-11-30T23:42:45.336Z,78.9
2017-11-30T23:43:46.729Z,79
2017-11-30T23:44:48.149Z,78.9
2017-11-30T23:45:49.422Z,79.1
2017-11-30T23:46:52.246Z,79.4
2017-11-30T23:47:53.514Z,78.5
2017-11-30T23:48:54.861Z,78.4
2017-11-30T23:49:56.160Z,78.4
2017-11-30T23:50:57.513Z,78.6
2017-11-30T23:51:59.893Z,78.7
2017-11-30T23:53:01.128Z,78.3
2017-11-30T23:54:02.444Z,78.7
2017-11-30T23:55:03.851Z,78.6
2017-11-30T23:56:05.191Z,78.5
2017-11-30T23:57:07.777Z,78.8
2017-11-30T23:58:09.052Z,78.8
2017-11-30T23:59:10.377Z,78.4
